sensor_id;sensor_type;location;lat;lon;timestamp;temperature;humidity
65034;DHT22;51601;51.356;12.458;2022-11-15T00:02:37;6.30;97.70
65034;DHT22;51601;51.356;12.458;2022-11-15T00:07:09;6.40;97.90
65034;DHT22;51601;51.356;12.458;2022-11-15T00:11:52;6.40;98.00
65034;DHT22;51601;51.356;12.458;2022-11-15T00:16:25;6.40;98.10
65034;DHT22;51601;51.356;12.458;2022-11-15T00:21:03;6.50;98.10
65034;DHT22;51601;51.356;12.458;2022-11-15T00:25:36;6.60;98.00
65034;DHT22;51601;51.356;12.458;2022-11-15T00:30:09;6.60;97.90
65034;DHT22;51601;51.356;12.458;2022-11-15T00:34:42;6.70;97.90
65034;DHT22;51601;51.356;12.458;2022-11-15T00:39:15;6.70;97.80
65034;DHT22;51601;51.356;12.458;2022-11-15T00:43:48;6.70;97.60
65034;DHT22;51601;51.356;12.458;2022-11-15T00:48:20;6.80;97.60
65034;DHT22;51601;51.356;12.458;2022-11-15T00:52:52;6.80;97.50
65034;DHT22;51601;51.356;12.458;2022-11-15T00:57:26;6.90;97.30
65034;DHT22;51601;51.356;12.458;2022-11-15T01:01:58;7.00;97.10
65034;DHT22;51601;51.356;12.458;2022-11-15T01:06:31;7.10;96.90
65034;DHT22;51601;51.356;12.458;2022-11-15T01:11:05;7.20;96.70
65034;DHT22;51601;51.356;12.458;2022-11-15T01:15:41;7.30;96.30
65034;DHT22;51601;51.356;12.458;2022-11-15T01:20:13;7.30;96.00
65034;DHT22;51601;51.356;12.458;2022-11-15T01:24:45;7.40;95.80
65034;DHT22;51601;51.356;12.458;2022-11-15T01:29:18;7.40;95.50
65034;DHT22;51601;51.356;12.458;2022-11-15T01:33:51;7.40;95.40
65034;DHT22;51601;51.356;12.458;2022-11-15T01:38:23;7.50;95.40
65034;DHT22;51601;51.356;12.458;2022-11-15T01:42:55;7.50;95.30
65034;DHT22;51601;51.356;12.458;2022-11-15T01:47:29;7.60;95.20
65034;DHT22;51601;51.356;12.458;2022-11-15T01:52:07;7.60;95.10
65034;DHT22;51601;51.356;12.458;2022-11-15T01:56:43;7.60;95.10
65034;DHT22;51601;51.356;12.458;2022-11-15T02:01:18;7.70;95.00
65034;DHT22;51601;51.356;12.458;2022-11-15T02:05:51;7.70;94.90
65034;DHT22;51601;51.356;12.458;2022-11-15T02:10:25;7.70;94.80
65034;DHT22;51601;51.356;12.458;2022-11-15T02:14:57;7.80;94.60
65034;DHT22;51601;51.356;12.458;2022-11-15T02:19:47;7.80;94.50
65034;DHT22;51601;51.356;12.458;2022-11-15T02:24:54;7.70;94.40
65034;DHT22;51601;51.356;12.458;2022-11-15T02:29:48;7.70;94.40
65034;DHT22;51601;51.356;12.458;2022-11-15T02:34:35;7.70;94.40
65034;DHT22;51601;51.356;12.458;2022-11-15T02:39:21;7.70;94.50
65034;DHT22;51601;51.356;12.458;2022-11-15T02:43:59;7.70;94.50
65034;DHT22;51601;51.356;12.458;2022-11-15T02:48:34;7.70;94.50
65034;DHT22;51601;51.356;12.458;2022-11-15T02:53:08;7.70;94.50
65034;DHT22;51601;51.356;12.458;2022-11-15T02:57:45;7.70;94.50
65034;DHT22;51601;51.356;12.458;2022-11-15T03:02:36;7.70;94.60
65034;DHT22;51601;51.356;12.458;2022-11-15T03:07:18;7.70;94.60
65034;DHT22;51601;51.356;12.458;2022-11-15T03:11:57;7.70;94.50
65034;DHT22;51601;51.356;12.458;2022-11-15T03:16:36;7.70;94.40
65034;DHT22;51601;51.356;12.458;2022-11-15T03:21:11;7.60;94.30
65034;DHT22;51601;51.356;12.458;2022-11-15T03:25:47;7.50;94.20
65034;DHT22;51601;51.356;12.458;2022-11-15T03:30:21;7.50;94.30
65034;DHT22;51601;51.356;12.458;2022-11-15T03:34:57;7.40;94.40
65034;DHT22;51601;51.356;12.458;2022-11-15T03:39:31;7.40;94.70
65034;DHT22;51601;51.356;12.458;2022-11-15T03:44:11;7.40;94.80
65034;DHT22;51601;51.356;12.458;2022-11-15T03:48:50;7.40;94.90
65034;DHT22;51601;51.356;12.458;2022-11-15T03:53:23;7.40;95.00
65034;DHT22;51601;51.356;12.458;2022-11-15T03:57:58;7.40;95.10
65034;DHT22;51601;51.356;12.458;2022-11-15T04:02:31;7.40;95.00
65034;DHT22;51601;51.356;12.458;2022-11-15T04:07:04;7.50;95.00
65034;DHT22;51601;51.356;12.458;2022-11-15T04:11:37;7.50;94.90
65034;DHT22;51601;51.356;12.458;2022-11-15T04:16:09;7.50;94.70
65034;DHT22;51601;51.356;12.458;2022-11-15T04:20:41;7.50;94.60
65034;DHT22;51601;51.356;12.458;2022-11-15T04:25:32;7.50;94.60
65034;DHT22;51601;51.356;12.458;2022-11-15T04:30:06;7.50;94.60
65034;DHT22;51601;51.356;12.458;2022-11-15T04:34:39;7.50;94.60
65034;DHT22;51601;51.356;12.458;2022-11-15T04:39:11;7.40;94.50
65034;DHT22;51601;51.356;12.458;2022-11-15T04:43:44;7.40;94.60
65034;DHT22;51601;51.356;12.458;2022-11-15T04:48:17;7.40;94.80
65034;DHT22;51601;51.356;12.458;2022-11-15T04:52:53;7.30;94.80
65034;DHT22;51601;51.356;12.458;2022-11-15T04:57:25;7.30;95.00
65034;DHT22;51601;51.356;12.458;2022-11-15T05:01:59;7.30;95.10
65034;DHT22;51601;51.356;12.458;2022-11-15T05:06:31;7.40;95.30
65034;DHT22;51601;51.356;12.458;2022-11-15T05:11:03;7.40;95.20
65034;DHT22;51601;51.356;12.458;2022-11-15T05:15:36;7.40;95.20
65034;DHT22;51601;51.356;12.458;2022-11-15T05:20:11;7.40;95.30
65034;DHT22;51601;51.356;12.458;2022-11-15T05:24:43;7.40;95.40
65034;DHT22;51601;51.356;12.458;2022-11-15T05:29:15;7.40;95.50
65034;DHT22;51601;51.356;12.458;2022-11-15T05:33:49;7.40;95.50
65034;DHT22;51601;51.356;12.458;2022-11-15T05:38:23;7.40;95.40
65034;DHT22;51601;51.356;12.458;2022-11-15T05:42:55;7.50;95.50
65034;DHT22;51601;51.356;12.458;2022-11-15T05:47:29;7.50;95.40
65034;DHT22;51601;51.356;12.458;2022-11-15T05:52:03;7.50;95.30
65034;DHT22;51601;51.356;12.458;2022-11-15T05:56:38;7.50;95.20
65034;DHT22;51601;51.356;12.458;2022-11-15T06:01:10;7.50;95.10
65034;DHT22;51601;51.356;12.458;2022-11-15T06:05:43;7.40;95.10
65034;DHT22;51601;51.356;12.458;2022-11-15T06:10:15;7.40;95.30
65034;DHT22;51601;51.356;12.458;2022-11-15T06:14:49;7.40;95.30
65034;DHT22;51601;51.356;12.458;2022-11-15T06:19:21;7.40;95.30
65034;DHT22;51601;51.356;12.458;2022-11-15T06:23:53;7.40;95.30
65034;DHT22;51601;51.356;12.458;2022-11-15T06:28:28;7.40;95.30
65034;DHT22;51601;51.356;12.458;2022-11-15T06:33:04;7.40;95.20
65034;DHT22;51601;51.356;12.458;2022-11-15T06:37:36;7.30;95.20
65034;DHT22;51601;51.356;12.458;2022-11-15T06:42:09;7.30;95.20
65034;DHT22;51601;51.356;12.458;2022-11-15T06:46:41;7.30;95.40
65034;DHT22;51601;51.356;12.458;2022-11-15T06:51:15;7.20;95.60
65034;DHT22;51601;51.356;12.458;2022-11-15T06:55:47;7.30;95.70
65034;DHT22;51601;51.356;12.458;2022-11-15T07:00:24;7.30;95.70
65034;DHT22;51601;51.356;12.458;2022-11-15T07:04:57;7.30;95.80
65034;DHT22;51601;51.356;12.458;2022-11-15T07:09:30;7.40;95.90
65034;DHT22;51601;51.356;12.458;2022-11-15T07:14:03;7.50;95.90
65034;DHT22;51601;51.356;12.458;2022-11-15T07:18:35;7.50;95.80
65034;DHT22;51601;51.356;12.458;2022-11-15T07:23:08;7.70;95.60
65034;DHT22;51601;51.356;12.458;2022-11-15T07:27:42;7.80;95.40
65034;DHT22;51601;51.356;12.458;2022-11-15T07:32:14;7.90;95.10
65034;DHT22;51601;51.356;12.458;2022-11-15T07:36:46;8.00;94.80
65034;DHT22;51601;51.356;12.458;2022-11-15T07:41:19;8.10;94.50
65034;DHT22;51601;51.356;12.458;2022-11-15T07:45:53;8.30;94.10
65034;DHT22;51601;51.356;12.458;2022-11-15T07:50:29;8.40;93.80
65034;DHT22;51601;51.356;12.458;2022-11-15T07:55:02;8.50;93.60
65034;DHT22;51601;51.356;12.458;2022-11-15T07:59:34;8.60;93.40
65034;DHT22;51601;51.356;12.458;2022-11-15T08:04:10;8.90;94.40
65034;DHT22;51601;51.356;12.458;2022-11-15T08:08:42;9.70;94.40
65034;DHT22;51601;51.356;12.458;2022-11-15T08:13:15;10.50;94.50
65034;DHT22;51601;51.356;12.458;2022-11-15T08:17:47;11.50;93.00
65034;DHT22;51601;51.356;12.458;2022-11-15T08:22:21;12.20;91.20
65034;DHT22;51601;51.356;12.458;2022-11-15T08:26:53;12.80;85.60
65034;DHT22;51601;51.356;12.458;2022-11-15T08:31:25;13.20;78.60
65034;DHT22;51601;51.356;12.458;2022-11-15T08:35:58;13.50;74.50
65034;DHT22;51601;51.356;12.458;2022-11-15T08:40:32;13.60;73.00
65034;DHT22;51601;51.356;12.458;2022-11-15T08:45:04;13.70;70.90
65034;DHT22;51601;51.356;12.458;2022-11-15T08:49:37;13.80;71.00
65034;DHT22;51601;51.356;12.458;2022-11-15T08:54:09;13.90;70.70
65034;DHT22;51601;51.356;12.458;2022-11-15T08:58:43;14.00;69.20
65034;DHT22;51601;51.356;12.458;2022-11-15T09:03:15;14.10;67.90
65034;DHT22;51601;51.356;12.458;2022-11-15T09:07:51;14.00;66.90
65034;DHT22;51601;51.356;12.458;2022-11-15T09:12:24;14.00;66.90
65034;DHT22;51601;51.356;12.458;2022-11-15T09:16:58;14.00;66.00
65034;DHT22;51601;51.356;12.458;2022-11-15T09:21:31;13.90;65.90
65034;DHT22;51601;51.356;12.458;2022-11-15T09:26:04;13.90;66.50
65034;DHT22;51601;51.356;12.458;2022-11-15T09:30:36;13.90;66.60
65034;DHT22;51601;51.356;12.458;2022-11-15T09:35:10;14.00;66.50
65034;DHT22;51601;51.356;12.458;2022-11-15T09:39:43;14.10;65.10
65034;DHT22;51601;51.356;12.458;2022-11-15T09:44:41;14.10;64.60
65034;DHT22;51601;51.356;12.458;2022-11-15T09:49:16;14.00;64.90
65034;DHT22;51601;51.356;12.458;2022-11-15T09:53:56;13.90;65.40
65034;DHT22;51601;51.356;12.458;2022-11-15T09:58:39;14.00;65.60
65034;DHT22;51601;51.356;12.458;2022-11-15T10:03:03;14.10;65.60
65034;DHT22;51601;51.356;12.458;2022-11-15T10:07:21;14.20;65.80
65034;DHT22;51601;51.356;12.458;2022-11-15T10:11:38;14.30;64.70
65034;DHT22;51601;51.356;12.458;2022-11-15T10:15:54;14.40;64.00
65034;DHT22;51601;51.356;12.458;2022-11-15T10:20:16;14.50;63.70
65034;DHT22;51601;51.356;12.458;2022-11-15T10:24:34;14.60;63.20
65034;DHT22;51601;51.356;12.458;2022-11-15T10:28:50;14.60;63.20
65034;DHT22;51601;51.356;12.458;2022-11-15T10:33:25;14.70;63.30
65034;DHT22;51601;51.356;12.458;2022-11-15T10:37:39;14.80;62.50
65034;DHT22;51601;51.356;12.458;2022-11-15T10:41:53;14.90;62.60
65034;DHT22;51601;51.356;12.458;2022-11-15T10:46:19;15.10;62.10
65034;DHT22;51601;51.356;12.458;2022-11-15T10:50:54;15.10;61.50
65034;DHT22;51601;51.356;12.458;2022-11-15T10:55:23;15.20;61.50
65034;DHT22;51601;51.356;12.458;2022-11-15T10:59:37;15.30;61.40
65034;DHT22;51601;51.356;12.458;2022-11-15T11:04:00;15.40;61.20
65034;DHT22;51601;51.356;12.458;2022-11-15T11:08:22;15.50;60.20
65034;DHT22;51601;51.356;12.458;2022-11-15T11:12:36;15.60;60.90
65034;DHT22;51601;51.356;12.458;2022-11-15T11:16:54;15.60;61.70
65034;DHT22;51601;51.356;12.458;2022-11-15T11:21:13;15.60;61.20
65034;DHT22;51601;51.356;12.458;2022-11-15T11:25:33;15.60;61.60
65034;DHT22;51601;51.356;12.458;2022-11-15T11:30:02;15.60;62.30
65034;DHT22;51601;51.356;12.458;2022-11-15T11:34:24;15.70;62.40
65034;DHT22;51601;51.356;12.458;2022-11-15T11:38:57;15.80;61.70
65034;DHT22;51601;51.356;12.458;2022-11-15T11:43:18;16.00;61.60
65034;DHT22;51601;51.356;12.458;2022-11-15T11:47:39;16.10;61.70
65034;DHT22;51601;51.356;12.458;2022-11-15T11:51:56;16.20;60.70
65034;DHT22;51601;51.356;12.458;2022-11-15T11:56:22;16.20;60.00
65034;DHT22;51601;51.356;12.458;2022-11-15T12:00:40;16.20;59.80
65034;DHT22;51601;51.356;12.458;2022-11-15T12:05:03;16.20;59.90
65034;DHT22;51601;51.356;12.458;2022-11-15T12:09:26;16.30;60.20
65034;DHT22;51601;51.356;12.458;2022-11-15T12:13:43;16.30;60.20
65034;DHT22;51601;51.356;12.458;2022-11-15T12:18:00;16.30;60.10
65034;DHT22;51601;51.356;12.458;2022-11-15T12:22:20;16.30;58.90
65034;DHT22;51601;51.356;12.458;2022-11-15T12:26:37;16.20;58.20
65034;DHT22;51601;51.356;12.458;2022-11-15T12:30:56;16.00;58.40
65034;DHT22;51601;51.356;12.458;2022-11-15T12:35:26;15.80;58.80
65034;DHT22;51601;51.356;12.458;2022-11-15T12:40:17;15.60;59.50
65034;DHT22;51601;51.356;12.458;2022-11-15T12:44:56;15.40;60.10
65034;DHT22;51601;51.356;12.458;2022-11-15T12:49:43;15.40;60.60
65034;DHT22;51601;51.356;12.458;2022-11-15T12:53:57;15.20;60.70
65034;DHT22;51601;51.356;12.458;2022-11-15T12:58:27;15.20;60.60
65034;DHT22;51601;51.356;12.458;2022-11-15T13:02:43;15.20;60.60
65034;DHT22;51601;51.356;12.458;2022-11-15T13:07:00;15.20;60.80
65034;DHT22;51601;51.356;12.458;2022-11-15T13:11:50;15.20;61.50
65034;DHT22;51601;51.356;12.458;2022-11-15T13:16:05;15.20;60.80
65034;DHT22;51601;51.356;12.458;2022-11-15T13:20:26;15.20;61.50
65034;DHT22;51601;51.356;12.458;2022-11-15T13:24:41;15.10;62.40
65034;DHT22;51601;51.356;12.458;2022-11-15T13:28:55;15.10;62.90
65034;DHT22;51601;51.356;12.458;2022-11-15T13:33:16;15.10;63.20
65034;DHT22;51601;51.356;12.458;2022-11-15T13:37:30;15.00;63.40
65034;DHT22;51601;51.356;12.458;2022-11-15T13:41:49;15.00;63.60
65034;DHT22;51601;51.356;12.458;2022-11-15T13:46:10;15.00;63.70
65034;DHT22;51601;51.356;12.458;2022-11-15T13:50:27;14.90;63.70
65034;DHT22;51601;51.356;12.458;2022-11-15T13:54:43;14.90;63.80
65034;DHT22;51601;51.356;12.458;2022-11-15T13:59:00;14.90;63.90
65034;DHT22;51601;51.356;12.458;2022-11-15T14:03:18;14.90;64.00
65034;DHT22;51601;51.356;12.458;2022-11-15T14:07:32;14.90;64.80
65034;DHT22;51601;51.356;12.458;2022-11-15T14:11:56;14.80;64.10
65034;DHT22;51601;51.356;12.458;2022-11-15T14:16:17;14.80;64.20
65034;DHT22;51601;51.356;12.458;2022-11-15T14:20:33;14.80;64.50
65034;DHT22;51601;51.356;12.458;2022-11-15T14:25:07;14.70;64.80
65034;DHT22;51601;51.356;12.458;2022-11-15T14:29:27;14.60;65.10
65034;DHT22;51601;51.356;12.458;2022-11-15T14:33:46;14.60;65.40
65034;DHT22;51601;51.356;12.458;2022-11-15T14:38:00;14.50;65.60
65034;DHT22;51601;51.356;12.458;2022-11-15T14:42:14;14.50;65.70
65034;DHT22;51601;51.356;12.458;2022-11-15T14:46:28;14.30;66.10
65034;DHT22;51601;51.356;12.458;2022-11-15T14:50:43;14.20;66.60
65034;DHT22;51601;51.356;12.458;2022-11-15T14:54:58;14.10;67.20
65034;DHT22;51601;51.356;12.458;2022-11-15T14:59:12;14.00;67.70
65034;DHT22;51601;51.356;12.458;2022-11-15T15:03:26;14.00;68.00
65034;DHT22;51601;51.356;12.458;2022-11-15T15:07:42;13.90;68.10
65034;DHT22;51601;51.356;12.458;2022-11-15T15:11:56;13.80;68.40
65034;DHT22;51601;51.356;12.458;2022-11-15T15:16:19;13.80;68.50
65034;DHT22;51601;51.356;12.458;2022-11-15T15:20:32;13.70;68.60
65034;DHT22;51601;51.356;12.458;2022-11-15T15:24:48;13.60;68.70
65034;DHT22;51601;51.356;12.458;2022-11-15T15:29:02;13.50;68.70
65034;DHT22;51601;51.356;12.458;2022-11-15T15:33:16;13.40;68.70
65034;DHT22;51601;51.356;12.458;2022-11-15T15:37:29;13.20;69.40
65034;DHT22;51601;51.356;12.458;2022-11-15T15:41:46;13.10;69.80
65034;DHT22;51601;51.356;12.458;2022-11-15T15:46:09;13.00;70.20
65034;DHT22;51601;51.356;12.458;2022-11-15T15:50:25;12.90;70.60
65034;DHT22;51601;51.356;12.458;2022-11-15T15:54:40;12.80;71.00
65034;DHT22;51601;51.356;12.458;2022-11-15T15:58:55;12.70;71.30
65034;DHT22;51601;51.356;12.458;2022-11-15T16:03:10;12.50;71.50
65034;DHT22;51601;51.356;12.458;2022-11-15T16:07:25;12.40;71.90
65034;DHT22;51601;51.356;12.458;2022-11-15T16:11:41;12.30;72.40
65034;DHT22;51601;51.356;12.458;2022-11-15T16:15:56;12.10;73.00
65034;DHT22;51601;51.356;12.458;2022-11-15T16:20:30;12.00;74.00
65034;DHT22;51601;51.356;12.458;2022-11-15T16:24:45;11.90;75.70
65034;DHT22;51601;51.356;12.458;2022-11-15T16:28:58;11.70;77.20
65034;DHT22;51601;51.356;12.458;2022-11-15T16:33:14;11.60;79.10
65034;DHT22;51601;51.356;12.458;2022-11-15T16:37:29;11.50;81.40
65034;DHT22;51601;51.356;12.458;2022-11-15T16:41:43;11.40;83.00
65034;DHT22;51601;51.356;12.458;2022-11-15T16:46:07;11.30;84.40
65034;DHT22;51601;51.356;12.458;2022-11-15T16:50:28;11.20;85.40
65034;DHT22;51601;51.356;12.458;2022-11-15T16:54:42;11.10;87.00
65034;DHT22;51601;51.356;12.458;2022-11-15T16:58:57;11.00;88.70
65034;DHT22;51601;51.356;12.458;2022-11-15T17:03:11;11.00;90.70
65034;DHT22;51601;51.356;12.458;2022-11-15T17:07:26;10.80;91.00
65034;DHT22;51601;51.356;12.458;2022-11-15T17:11:40;10.80;91.60
65034;DHT22;51601;51.356;12.458;2022-11-15T17:16:03;10.70;91.90
65034;DHT22;51601;51.356;12.458;2022-11-15T17:20:21;10.70;92.30
65034;DHT22;51601;51.356;12.458;2022-11-15T17:24:36;10.60;92.60
65034;DHT22;51601;51.356;12.458;2022-11-15T17:28:54;10.50;92.80
65034;DHT22;51601;51.356;12.458;2022-11-15T17:33:08;10.50;92.90
65034;DHT22;51601;51.356;12.458;2022-11-15T17:37:22;10.40;93.10
65034;DHT22;51601;51.356;12.458;2022-11-15T17:41:37;10.40;93.60
65034;DHT22;51601;51.356;12.458;2022-11-15T17:45:51;10.30;93.90
65034;DHT22;51601;51.356;12.458;2022-11-15T17:50:05;10.30;93.90
65034;DHT22;51601;51.356;12.458;2022-11-15T17:54:18;10.20;94.10
65034;DHT22;51601;51.356;12.458;2022-11-15T17:58:34;10.20;94.30
65034;DHT22;51601;51.356;12.458;2022-11-15T18:02:48;10.10;94.40
65034;DHT22;51601;51.356;12.458;2022-11-15T18:07:02;10.00;94.20
65034;DHT22;51601;51.356;12.458;2022-11-15T18:11:18;10.00;94.20
65034;DHT22;51601;51.356;12.458;2022-11-15T18:15:34;9.90;94.40
65034;DHT22;51601;51.356;12.458;2022-11-15T18:19:48;9.80;94.80
65034;DHT22;51601;51.356;12.458;2022-11-15T18:24:02;9.80;95.00
65034;DHT22;51601;51.356;12.458;2022-11-15T18:28:17;9.70;95.10
65034;DHT22;51601;51.356;12.458;2022-11-15T18:32:32;9.70;95.20
65034;DHT22;51601;51.356;12.458;2022-11-15T18:36:48;9.60;95.30
65034;DHT22;51601;51.356;12.458;2022-11-15T18:41:06;9.60;95.50
65034;DHT22;51601;51.356;12.458;2022-11-15T18:45:20;9.50;95.60
65034;DHT22;51601;51.356;12.458;2022-11-15T18:49:37;9.50;95.90
65034;DHT22;51601;51.356;12.458;2022-11-15T18:53:52;9.50;96.10
65034;DHT22;51601;51.356;12.458;2022-11-15T18:58:06;9.40;96.30
65034;DHT22;51601;51.356;12.458;2022-11-15T19:02:20;9.40;96.60
65034;DHT22;51601;51.356;12.458;2022-11-15T19:06:38;9.40;96.70
65034;DHT22;51601;51.356;12.458;2022-11-15T19:10:52;9.40;96.70
65034;DHT22;51601;51.356;12.458;2022-11-15T19:15:07;9.30;96.70
65034;DHT22;51601;51.356;12.458;2022-11-15T19:19:23;9.30;96.90
65034;DHT22;51601;51.356;12.458;2022-11-15T19:23:39;9.30;97.00
65034;DHT22;51601;51.356;12.458;2022-11-15T19:27:53;9.20;97.50
65034;DHT22;51601;51.356;12.458;2022-11-15T19:32:07;9.20;97.20
65034;DHT22;51601;51.356;12.458;2022-11-15T19:36:23;9.20;97.20
65034;DHT22;51601;51.356;12.458;2022-11-15T19:40:42;9.20;97.20
65034;DHT22;51601;51.356;12.458;2022-11-15T19:44:58;9.20;97.10
65034;DHT22;51601;51.356;12.458;2022-11-15T19:49:12;9.10;97.10
65034;DHT22;51601;51.356;12.458;2022-11-15T19:53:29;9.20;97.10
65034;DHT22;51601;51.356;12.458;2022-11-15T19:57:48;9.10;96.90
65034;DHT22;51601;51.356;12.458;2022-11-15T20:02:02;9.10;96.90
65034;DHT22;51601;51.356;12.458;2022-11-15T20:06:17;9.00;96.80
65034;DHT22;51601;51.356;12.458;2022-11-15T20:10:32;8.90;96.80
65034;DHT22;51601;51.356;12.458;2022-11-15T20:14:48;8.90;96.80
65034;DHT22;51601;51.356;12.458;2022-11-15T20:19:06;8.80;96.90
65034;DHT22;51601;51.356;12.458;2022-11-15T20:23:25;8.80;96.80
65034;DHT22;51601;51.356;12.458;2022-11-15T20:27:39;8.70;96.80
65034;DHT22;51601;51.356;12.458;2022-11-15T20:31:54;8.60;96.60
65034;DHT22;51601;51.356;12.458;2022-11-15T20:36:10;8.60;96.50
65034;DHT22;51601;51.356;12.458;2022-11-15T20:40:27;8.50;96.40
65034;DHT22;51601;51.356;12.458;2022-11-15T20:44:41;8.40;96.30
65034;DHT22;51601;51.356;12.458;2022-11-15T20:48:57;8.30;96.30
65034;DHT22;51601;51.356;12.458;2022-11-15T20:53:12;8.30;96.40
65034;DHT22;51601;51.356;12.458;2022-11-15T20:57:26;8.30;96.30
65034;DHT22;51601;51.356;12.458;2022-11-15T21:01:40;8.20;96.30
65034;DHT22;51601;51.356;12.458;2022-11-15T21:05:56;8.10;96.30
65034;DHT22;51601;51.356;12.458;2022-11-15T21:10:10;8.10;96.30
65034;DHT22;51601;51.356;12.458;2022-11-15T21:14:45;8.00;96.20
65034;DHT22;51601;51.356;12.458;2022-11-15T21:19:00;7.90;96.20
65034;DHT22;51601;51.356;12.458;2022-11-15T21:23:15;7.80;96.20
65034;DHT22;51601;51.356;12.458;2022-11-15T21:27:29;7.80;96.30
65034;DHT22;51601;51.356;12.458;2022-11-15T21:31:44;7.70;96.30
65034;DHT22;51601;51.356;12.458;2022-11-15T21:35:57;7.70;96.30
65034;DHT22;51601;51.356;12.458;2022-11-15T21:40:15;7.60;96.40
65034;DHT22;51601;51.356;12.458;2022-11-15T21:44:32;7.50;96.50
65034;DHT22;51601;51.356;12.458;2022-11-15T21:48:46;7.50;96.50
65034;DHT22;51601;51.356;12.458;2022-11-15T21:52:59;7.40;96.60
65034;DHT22;51601;51.356;12.458;2022-11-15T21:57:15;7.40;96.80
65034;DHT22;51601;51.356;12.458;2022-11-15T22:01:30;7.40;97.20
65034;DHT22;51601;51.356;12.458;2022-11-15T22:06:02;7.30;97.00
65034;DHT22;51601;51.356;12.458;2022-11-15T22:10:16;7.40;97.10
65034;DHT22;51601;51.356;12.458;2022-11-15T22:14:35;7.30;97.00
65034;DHT22;51601;51.356;12.458;2022-11-15T22:18:49;7.30;97.10
65034;DHT22;51601;51.356;12.458;2022-11-15T22:23:03;7.30;97.00
65034;DHT22;51601;51.356;12.458;2022-11-15T22:27:18;7.30;96.90
65034;DHT22;51601;51.356;12.458;2022-11-15T22:31:37;7.20;97.10
65034;DHT22;51601;51.356;12.458;2022-11-15T22:35:51;7.20;96.60
65034;DHT22;51601;51.356;12.458;2022-11-15T22:40:06;7.20;96.60
65034;DHT22;51601;51.356;12.458;2022-11-15T22:44:20;7.10;96.40
65034;DHT22;51601;51.356;12.458;2022-11-15T22:48:37;7.00;96.40
65034;DHT22;51601;51.356;12.458;2022-11-15T22:52:51;7.00;96.40
65034;DHT22;51601;51.356;12.458;2022-11-15T22:57:05;7.00;96.40
65034;DHT22;51601;51.356;12.458;2022-11-15T23:01:20;6.90;96.50
65034;DHT22;51601;51.356;12.458;2022-11-15T23:05:38;6.90;96.60
65034;DHT22;51601;51.356;12.458;2022-11-15T23:09:53;6.90;96.70
65034;DHT22;51601;51.356;12.458;2022-11-15T23:14:27;6.90;96.80
65034;DHT22;51601;51.356;12.458;2022-11-15T23:18:41;6.90;96.80
65034;DHT22;51601;51.356;12.458;2022-11-15T23:23:00;6.90;96.70
65034;DHT22;51601;51.356;12.458;2022-11-15T23:27:16;6.90;96.60
65034;DHT22;51601;51.356;12.458;2022-11-15T23:31:32;6.90;96.40
65034;DHT22;51601;51.356;12.458;2022-11-15T23:36:13;6.90;96.20
65034;DHT22;51601;51.356;12.458;2022-11-15T23:40:29;6.80;96.10
65034;DHT22;51601;51.356;12.458;2022-11-15T23:44:43;6.80;95.90
65034;DHT22;51601;51.356;12.458;2022-11-15T23:48:57;6.70;95.80
65034;DHT22;51601;51.356;12.458;2022-11-15T23:53:11;6.70;95.60
65034;DHT22;51601;51.356;12.458;2022-11-15T23:57:29;6.50;95.50
